sensor_id;sensor_type;location;lat;lon;timestamp;P1;durP1;ratioP1;P2;durP2;ratioP2
18576;SDS011;9418;52.694;13.294;2024-02-21T00:02:18;34.13;;;10.23;;
18576;SDS011;9418;52.694;13.294;2024-02-21T00:04:45;31.90;;;10.03;;
18576;SDS011;9418;52.694;13.294;2024-02-21T00:07:12;25.60;;;8.00;;
18576;SDS011;9418;52.694;13.294;2024-02-21T00:09:40;22.10;;;8.73;;
18576;SDS011;9418;52.694;13.294;2024-02-21T00:12:06;21.23;;;8.77;;
18576;SDS011;9418;52.694;13.294;2024-02-21T00:14:33;34.00;;;8.17;;
18576;SDS011;9418;52.694;13.294;2024-02-21T00:17:00;25.87;;;8.70;;
18576;SDS011;9418;52.694;13.294;2024-02-21T00:19:26;21.30;;;8.30;;
18576;SDS011;9418;52.694;13.294;2024-02-21T00:21:53;28.33;;;8.40;;
18576;SDS011;9418;52.694;13.294;2024-02-21T00:24:20;21.83;;;8.53;;
18576;SDS011;9418;52.694;13.294;2024-02-21T00:26:47;30.00;;;8.73;;
18576;SDS011;9418;52.694;13.294;2024-02-21T00:29:14;24.87;;;8.30;;
18576;SDS011;9418;52.694;13.294;2024-02-21T00:31:40;23.17;;;7.20;;
18576;SDS011;9418;52.694;13.294;2024-02-21T00:34:07;22.93;;;8.13;;
18576;SDS011;9418;52.694;13.294;2024-02-21T00:36:34;20.90;;;7.50;;
18576;SDS011;9418;52.694;13.294;2024-02-21T00:39:00;18.73;;;7.27;;
18576;SDS011;9418;52.694;13.294;2024-02-21T00:41:27;24.23;;;8.00;;
18576;SDS011;9418;52.694;13.294;2024-02-21T00:43:55;31.87;;;8.67;;
18576;SDS011;9418;52.694;13.294;2024-02-21T00:46:22;17.30;;;7.33;;
18576;SDS011;9418;52.694;13.294;2024-02-21T00:48:49;22.07;;;9.00;;
18576;SDS011;9418;52.694;13.294;2024-02-21T00:51:15;21.73;;;9.20;;
18576;SDS011;9418;52.694;13.294;2024-02-21T00:53:42;28.17;;;8.43;;
18576;SDS011;9418;52.694;13.294;2024-02-21T00:56:09;26.47;;;7.60;;
18576;SDS011;9418;52.694;13.294;2024-02-21T00:58:35;20.77;;;8.63;;
18576;SDS011;9418;52.694;13.294;2024-02-21T01:01:03;27.20;;;7.67;;
18576;SDS011;9418;52.694;13.294;2024-02-21T01:03:30;26.40;;;7.63;;
18576;SDS011;9418;52.694;13.294;2024-02-21T01:05:56;20.60;;;6.80;;
18576;SDS011;9418;52.694;13.294;2024-02-21T01:08:23;24.90;;;7.97;;
18576;SDS011;9418;52.694;13.294;2024-02-21T01:10:50;21.10;;;7.10;;
18576;SDS011;9418;52.694;13.294;2024-02-21T01:13:17;20.47;;;6.83;;
18576;SDS011;9418;52.694;13.294;2024-02-21T01:15:43;23.27;;;6.50;;
18576;SDS011;9418;52.694;13.294;2024-02-21T01:18:11;18.53;;;6.20;;
18576;SDS011;9418;52.694;13.294;2024-02-21T01:20:38;23.20;;;7.27;;
18576;SDS011;9418;52.694;13.294;2024-02-21T01:23:04;19.60;;;6.40;;
18576;SDS011;9418;52.694;13.294;2024-02-21T01:25:31;23.80;;;7.10;;
18576;SDS011;9418;52.694;13.294;2024-02-21T01:27:57;26.40;;;7.27;;
18576;SDS011;9418;52.694;13.294;2024-02-21T01:30:24;17.73;;;6.43;;
18576;SDS011;9418;52.694;13.294;2024-02-21T01:32:51;18.87;;;6.37;;
18576;SDS011;9418;52.694;13.294;2024-02-21T01:35:19;19.00;;;7.40;;
18576;SDS011;9418;52.694;13.294;2024-02-21T01:37:45;16.80;;;7.80;;
18576;SDS011;9418;52.694;13.294;2024-02-21T01:40:12;18.63;;;7.23;;
18576;SDS011;9418;52.694;13.294;2024-02-21T01:42:38;23.70;;;9.10;;
18576;SDS011;9418;52.694;13.294;2024-02-21T01:45:06;25.23;;;8.03;;
18576;SDS011;9418;52.694;13.294;2024-02-21T01:47:32;24.13;;;8.20;;
18576;SDS011;9418;52.694;13.294;2024-02-21T01:49:59;24.70;;;6.80;;
18576;SDS011;9418;52.694;13.294;2024-02-21T01:52:28;28.93;;;7.90;;
18576;SDS011;9418;52.694;13.294;2024-02-21T01:54:56;24.93;;;7.87;;
18576;SDS011;9418;52.694;13.294;2024-02-21T01:57:23;21.30;;;7.70;;
18576;SDS011;9418;52.694;13.294;2024-02-21T01:59:50;22.73;;;7.30;;
18576;SDS011;9418;52.694;13.294;2024-02-21T02:02:17;20.50;;;7.87;;
18576;SDS011;9418;52.694;13.294;2024-02-21T02:04:44;21.40;;;8.07;;
18576;SDS011;9418;52.694;13.294;2024-02-21T02:07:11;26.97;;;8.20;;
18576;SDS011;9418;52.694;13.294;2024-02-21T02:09:39;20.33;;;6.23;;
18576;SDS011;9418;52.694;13.294;2024-02-21T02:12:06;24.10;;;7.00;;
18576;SDS011;9418;52.694;13.294;2024-02-21T02:14:33;15.20;;;5.03;;
18576;SDS011;9418;52.694;13.294;2024-02-21T02:16:59;20.90;;;5.30;;
18576;SDS011;9418;52.694;13.294;2024-02-21T02:19:26;23.27;;;6.23;;
18576;SDS011;9418;52.694;13.294;2024-02-21T02:21:54;21.67;;;6.23;;
18576;SDS011;9418;52.694;13.294;2024-02-21T02:24:27;20.43;;;6.90;;
18576;SDS011;9418;52.694;13.294;2024-02-21T02:26:53;16.13;;;5.97;;
18576;SDS011;9418;52.694;13.294;2024-02-21T02:29:20;14.73;;;5.20;;
18576;SDS011;9418;52.694;13.294;2024-02-21T02:31:47;17.03;;;5.60;;
18576;SDS011;9418;52.694;13.294;2024-02-21T02:34:14;15.17;;;6.20;;
18576;SDS011;9418;52.694;13.294;2024-02-21T02:36:41;20.43;;;6.40;;
18576;SDS011;9418;52.694;13.294;2024-02-21T02:39:07;19.07;;;5.53;;
18576;SDS011;9418;52.694;13.294;2024-02-21T02:41:36;19.53;;;5.80;;
18576;SDS011;9418;52.694;13.294;2024-02-21T02:44:02;33.33;;;6.40;;
18576;SDS011;9418;52.694;13.294;2024-02-21T02:46:29;15.10;;;5.60;;
18576;SDS011;9418;52.694;13.294;2024-02-21T02:48:56;24.33;;;6.47;;
18576;SDS011;9418;52.694;13.294;2024-02-21T02:51:22;17.50;;;6.20;;
18576;SDS011;9418;52.694;13.294;2024-02-21T02:53:49;20.13;;;5.67;;
18576;SDS011;9418;52.694;13.294;2024-02-21T02:56:16;15.53;;;5.90;;
18576;SDS011;9418;52.694;13.294;2024-02-21T02:58:44;15.73;;;6.73;;
18576;SDS011;9418;52.694;13.294;2024-02-21T03:01:11;17.97;;;6.20;;
18576;SDS011;9418;52.694;13.294;2024-02-21T03:03:38;21.00;;;7.30;;
18576;SDS011;9418;52.694;13.294;2024-02-21T03:06:05;16.60;;;7.00;;
18576;SDS011;9418;52.694;13.294;2024-02-21T03:08:31;18.40;;;7.00;;
18576;SDS011;9418;52.694;13.294;2024-02-21T03:10:59;18.90;;;6.83;;
18576;SDS011;9418;52.694;13.294;2024-02-21T03:13:26;20.23;;;7.00;;
18576;SDS011;9418;52.694;13.294;2024-02-21T03:15:54;14.00;;;6.50;;
18576;SDS011;9418;52.694;13.294;2024-02-21T03:18:20;21.70;;;7.47;;
18576;SDS011;9418;52.694;13.294;2024-02-21T03:20:47;15.00;;;6.13;;
18576;SDS011;9418;52.694;13.294;2024-02-21T03:23:13;16.37;;;6.70;;
18576;SDS011;9418;52.694;13.294;2024-02-21T03:25:40;14.90;;;6.80;;
18576;SDS011;9418;52.694;13.294;2024-02-21T03:28:07;20.93;;;7.57;;
18576;SDS011;9418;52.694;13.294;2024-02-21T03:30:33;16.93;;;8.30;;
18576;SDS011;9418;52.694;13.294;2024-02-21T03:33:02;17.93;;;7.90;;
18576;SDS011;9418;52.694;13.294;2024-02-21T03:35:29;27.83;;;8.20;;
18576;SDS011;9418;52.694;13.294;2024-02-21T03:37:55;25.30;;;8.63;;
18576;SDS011;9418;52.694;13.294;2024-02-21T03:40:22;17.67;;;8.30;;
18576;SDS011;9418;52.694;13.294;2024-02-21T03:42:48;21.00;;;7.90;;
18576;SDS011;9418;52.694;13.294;2024-02-21T03:45:15;16.87;;;7.90;;
18576;SDS011;9418;52.694;13.294;2024-02-21T03:47:41;13.17;;;7.00;;
18576;SDS011;9418;52.694;13.294;2024-02-21T03:50:09;18.30;;;8.27;;
18576;SDS011;9418;52.694;13.294;2024-02-21T03:52:36;18.83;;;7.50;;
18576;SDS011;9418;52.694;13.294;2024-02-21T03:55:03;14.10;;;7.93;;
18576;SDS011;9418;52.694;13.294;2024-02-21T03:57:30;21.87;;;8.17;;
18576;SDS011;9418;52.694;13.294;2024-02-21T03:59:56;20.47;;;8.70;;
18576;SDS011;9418;52.694;13.294;2024-02-21T04:02:23;15.77;;;7.57;;
18576;SDS011;9418;52.694;13.294;2024-02-21T04:04:50;17.57;;;6.87;;
18576;SDS011;9418;52.694;13.294;2024-02-21T04:07:17;18.00;;;7.73;;
18576;SDS011;9418;52.694;13.294;2024-02-21T04:09:44;13.63;;;6.80;;
18576;SDS011;9418;52.694;13.294;2024-02-21T04:12:11;22.53;;;8.63;;
18576;SDS011;9418;52.694;13.294;2024-02-21T04:14:37;24.23;;;9.30;;
18576;SDS011;9418;52.694;13.294;2024-02-21T04:17:04;18.60;;;8.53;;
18576;SDS011;9418;52.694;13.294;2024-02-21T04:19:32;16.33;;;7.73;;
18576;SDS011;9418;52.694;13.294;2024-02-21T04:21:58;20.47;;;7.53;;
18576;SDS011;9418;52.694;13.294;2024-02-21T04:24:26;16.60;;;7.93;;
18576;SDS011;9418;52.694;13.294;2024-02-21T04:26:53;15.17;;;7.20;;
18576;SDS011;9418;52.694;13.294;2024-02-21T04:29:19;18.23;;;7.27;;
18576;SDS011;9418;52.694;13.294;2024-02-21T04:31:46;21.33;;;7.90;;
18576;SDS011;9418;52.694;13.294;2024-02-21T04:34:13;19.97;;;8.03;;
18576;SDS011;9418;52.694;13.294;2024-02-21T04:36:39;18.13;;;7.40;;
18576;SDS011;9418;52.694;13.294;2024-02-21T04:39:06;23.07;;;8.10;;
18576;SDS011;9418;52.694;13.294;2024-02-21T04:41:34;23.70;;;7.77;;
18576;SDS011;9418;52.694;13.294;2024-02-21T04:44:00;18.73;;;7.30;;
18576;SDS011;9418;52.694;13.294;2024-02-21T04:46:28;17.07;;;6.83;;
18576;SDS011;9418;52.694;13.294;2024-02-21T04:48:55;17.57;;;7.13;;
18576;SDS011;9418;52.694;13.294;2024-02-21T04:51:22;23.60;;;8.53;;
18576;SDS011;9418;52.694;13.294;2024-02-21T04:53:48;19.20;;;8.07;;
18576;SDS011;9418;52.694;13.294;2024-02-21T04:56:15;15.27;;;6.97;;
18576;SDS011;9418;52.694;13.294;2024-02-21T04:58:43;17.27;;;7.53;;
18576;SDS011;9418;52.694;13.294;2024-02-21T05:01:09;20.40;;;7.97;;
18576;SDS011;9418;52.694;13.294;2024-02-21T05:03:36;21.10;;;8.17;;
18576;SDS011;9418;52.694;13.294;2024-02-21T05:06:04;20.23;;;7.30;;
18576;SDS011;9418;52.694;13.294;2024-02-21T05:08:31;15.40;;;8.33;;
18576;SDS011;9418;52.694;13.294;2024-02-21T05:10:58;15.20;;;6.63;;
18576;SDS011;9418;52.694;13.294;2024-02-21T05:13:24;16.00;;;7.30;;
18576;SDS011;9418;52.694;13.294;2024-02-21T05:15:53;21.63;;;7.33;;
18576;SDS011;9418;52.694;13.294;2024-02-21T05:18:20;13.83;;;6.60;;
18576;SDS011;9418;52.694;13.294;2024-02-21T05:20:46;17.53;;;6.67;;
18576;SDS011;9418;52.694;13.294;2024-02-21T05:23:13;19.40;;;7.40;;
18576;SDS011;9418;52.694;13.294;2024-02-21T05:25:39;15.90;;;7.37;;
18576;SDS011;9418;52.694;13.294;2024-02-21T05:28:06;18.67;;;9.27;;
18576;SDS011;9418;52.694;13.294;2024-02-21T05:30:33;20.73;;;8.27;;
18576;SDS011;9418;52.694;13.294;2024-02-21T05:33:04;15.97;;;7.30;;
18576;SDS011;9418;52.694;13.294;2024-02-21T05:35:31;17.30;;;8.20;;
18576;SDS011;9418;52.694;13.294;2024-02-21T05:37:58;13.87;;;6.77;;
18576;SDS011;9418;52.694;13.294;2024-02-21T05:40:25;25.63;;;7.60;;
18576;SDS011;9418;52.694;13.294;2024-02-21T05:42:52;15.27;;;6.63;;
18576;SDS011;9418;52.694;13.294;2024-02-21T05:45:18;19.93;;;6.90;;
18576;SDS011;9418;52.694;13.294;2024-02-21T05:47:45;16.23;;;8.57;;
18576;SDS011;9418;52.694;13.294;2024-02-21T05:50:13;16.23;;;7.77;;
18576;SDS011;9418;52.694;13.294;2024-02-21T05:52:39;28.90;;;9.00;;
18576;SDS011;9418;52.694;13.294;2024-02-21T05:55:06;21.63;;;8.00;;
18576;SDS011;9418;52.694;13.294;2024-02-21T05:57:33;24.43;;;9.40;;
18576;SDS011;9418;52.694;13.294;2024-02-21T06:00:00;23.00;;;8.60;;
18576;SDS011;9418;52.694;13.294;2024-02-21T06:02:30;15.03;;;8.40;;
18576;SDS011;9418;52.694;13.294;2024-02-21T06:04:56;20.70;;;8.50;;
18576;SDS011;9418;52.694;13.294;2024-02-21T06:07:24;17.23;;;8.27;;
18576;SDS011;9418;52.694;13.294;2024-02-21T06:09:51;24.07;;;10.23;;
18576;SDS011;9418;52.694;13.294;2024-02-21T06:12:17;27.23;;;10.07;;
18576;SDS011;9418;52.694;13.294;2024-02-21T06:14:44;20.93;;;8.33;;
18576;SDS011;9418;52.694;13.294;2024-02-21T06:17:11;20.30;;;7.90;;
18576;SDS011;9418;52.694;13.294;2024-02-21T06:19:39;20.10;;;9.50;;
18576;SDS011;9418;52.694;13.294;2024-02-21T06:22:06;19.90;;;9.07;;
18576;SDS011;9418;52.694;13.294;2024-02-21T06:24:35;19.93;;;8.70;;
18576;SDS011;9418;52.694;13.294;2024-02-21T06:27:02;21.80;;;8.97;;
18576;SDS011;9418;52.694;13.294;2024-02-21T06:29:30;20.40;;;9.00;;
18576;SDS011;9418;52.694;13.294;2024-02-21T06:31:57;26.63;;;10.17;;
18576;SDS011;9418;52.694;13.294;2024-02-21T06:34:24;22.23;;;9.30;;
18576;SDS011;9418;52.694;13.294;2024-02-21T06:36:51;20.30;;;10.10;;
18576;SDS011;9418;52.694;13.294;2024-02-21T06:39:17;21.87;;;10.60;;
18576;SDS011;9418;52.694;13.294;2024-02-21T06:41:45;21.57;;;8.70;;
18576;SDS011;9418;52.694;13.294;2024-02-21T06:44:12;26.80;;;10.53;;
18576;SDS011;9418;52.694;13.294;2024-02-21T06:46:39;20.60;;;9.20;;
18576;SDS011;9418;52.694;13.294;2024-02-21T06:49:06;21.83;;;9.47;;
18576;SDS011;9418;52.694;13.294;2024-02-21T06:51:32;23.30;;;9.53;;
18576;SDS011;9418;52.694;13.294;2024-02-21T06:53:59;21.20;;;9.30;;
18576;SDS011;9418;52.694;13.294;2024-02-21T06:56:27;12.50;;;8.57;;
18576;SDS011;9418;52.694;13.294;2024-02-21T06:58:55;25.97;;;9.07;;
18576;SDS011;9418;52.694;13.294;2024-02-21T07:01:22;20.73;;;9.70;;
18576;SDS011;9418;52.694;13.294;2024-02-21T07:03:48;22.70;;;9.47;;
18576;SDS011;9418;52.694;13.294;2024-02-21T07:06:15;19.30;;;8.63;;
18576;SDS011;9418;52.694;13.294;2024-02-21T07:08:41;17.70;;;9.10;;
18576;SDS011;9418;52.694;13.294;2024-02-21T07:11:08;17.87;;;9.57;;
18576;SDS011;9418;52.694;13.294;2024-02-21T07:13:35;16.53;;;9.10;;
18576;SDS011;9418;52.694;13.294;2024-02-21T07:16:03;17.33;;;9.10;;
18576;SDS011;9418;52.694;13.294;2024-02-21T07:18:30;20.23;;;9.47;;
18576;SDS011;9418;52.694;13.294;2024-02-21T07:20:57;22.93;;;10.57;;
18576;SDS011;9418;52.694;13.294;2024-02-21T07:23:23;20.67;;;9.00;;
18576;SDS011;9418;52.694;13.294;2024-02-21T07:25:50;15.30;;;9.17;;
18576;SDS011;9418;52.694;13.294;2024-02-21T07:28:17;26.70;;;10.33;;
18576;SDS011;9418;52.694;13.294;2024-02-21T07:30:43;24.40;;;9.97;;
18576;SDS011;9418;52.694;13.294;2024-02-21T07:33:11;17.23;;;9.43;;
18576;SDS011;9418;52.694;13.294;2024-02-21T07:35:38;21.10;;;9.53;;
18576;SDS011;9418;52.694;13.294;2024-02-21T07:38:06;21.83;;;9.63;;
18576;SDS011;9418;52.694;13.294;2024-02-21T07:40:33;23.93;;;9.57;;
18576;SDS011;9418;52.694;13.294;2024-02-21T07:43:00;21.10;;;9.63;;
18576;SDS011;9418;52.694;13.294;2024-02-21T07:45:27;16.10;;;8.77;;
18576;SDS011;9418;52.694;13.294;2024-02-21T07:47:53;16.00;;;8.53;;
18576;SDS011;9418;52.694;13.294;2024-02-21T07:50:21;18.53;;;8.57;;
18576;SDS011;9418;52.694;13.294;2024-02-21T07:52:48;15.50;;;8.80;;
18576;SDS011;9418;52.694;13.294;2024-02-21T07:55:14;19.43;;;8.20;;
18576;SDS011;9418;52.694;13.294;2024-02-21T07:57:41;18.27;;;9.30;;
18576;SDS011;9418;52.694;13.294;2024-02-21T08:00:08;15.00;;;9.80;;
18576;SDS011;9418;52.694;13.294;2024-02-21T08:02:40;14.80;;;9.43;;
18576;SDS011;9418;52.694;13.294;2024-02-21T08:05:07;21.30;;;9.90;;
18576;SDS011;9418;52.694;13.294;2024-02-21T08:07:35;14.83;;;9.33;;
18576;SDS011;9418;52.694;13.294;2024-02-21T08:10:02;14.90;;;8.20;;
18576;SDS011;9418;52.694;13.294;2024-02-21T08:12:29;18.07;;;9.30;;
18576;SDS011;9418;52.694;13.294;2024-02-21T08:14:57;20.33;;;9.90;;
18576;SDS011;9418;52.694;13.294;2024-02-21T08:17:24;17.63;;;9.57;;
18576;SDS011;9418;52.694;13.294;2024-02-21T08:19:50;18.17;;;9.43;;
18576;SDS011;9418;52.694;13.294;2024-02-21T08:22:17;22.80;;;9.90;;
18576;SDS011;9418;52.694;13.294;2024-02-21T08:24:45;22.47;;;8.70;;
18576;SDS011;9418;52.694;13.294;2024-02-21T08:27:11;20.27;;;8.97;;
18576;SDS011;9418;52.694;13.294;2024-02-21T08:29:38;24.30;;;8.87;;
18576;SDS011;9418;52.694;13.294;2024-02-21T08:32:05;14.60;;;8.43;;
18576;SDS011;9418;52.694;13.294;2024-02-21T08:34:32;13.63;;;7.90;;
18576;SDS011;9418;52.694;13.294;2024-02-21T08:36:59;13.87;;;7.77;;
18576;SDS011;9418;52.694;13.294;2024-02-21T08:39:26;17.87;;;9.70;;
18576;SDS011;9418;52.694;13.294;2024-02-21T08:41:54;15.63;;;8.80;;
18576;SDS011;9418;52.694;13.294;2024-02-21T08:44:22;18.20;;;9.00;;
18576;SDS011;9418;52.694;13.294;2024-02-21T08:46:48;23.53;;;10.27;;
18576;SDS011;9418;52.694;13.294;2024-02-21T08:49:15;23.37;;;8.80;;
18576;SDS011;9418;52.694;13.294;2024-02-21T08:51:41;18.87;;;8.97;;
18576;SDS011;9418;52.694;13.294;2024-02-21T08:54:09;20.17;;;9.10;;
18576;SDS011;9418;52.694;13.294;2024-02-21T08:56:35;18.70;;;9.73;;
18576;SDS011;9418;52.694;13.294;2024-02-21T08:59:03;18.97;;;8.10;;
18576;SDS011;9418;52.694;13.294;2024-02-21T09:01:30;17.50;;;9.50;;
18576;SDS011;9418;52.694;13.294;2024-02-21T09:03:56;13.00;;;7.90;;
18576;SDS011;9418;52.694;13.294;2024-02-21T09:06:23;18.17;;;8.90;;
18576;SDS011;9418;52.694;13.294;2024-02-21T09:08:49;13.33;;;8.97;;
18576;SDS011;9418;52.694;13.294;2024-02-21T09:11:16;15.53;;;9.83;;
18576;SDS011;9418;52.694;13.294;2024-02-21T09:13:43;15.63;;;9.27;;
18576;SDS011;9418;52.694;13.294;2024-02-21T09:16:10;16.03;;;8.17;;
18576;SDS011;9418;52.694;13.294;2024-02-21T09:18:37;14.40;;;10.20;;
18576;SDS011;9418;52.694;13.294;2024-02-21T09:21:04;19.27;;;9.03;;
18576;SDS011;9418;52.694;13.294;2024-02-21T09:23:30;17.10;;;10.13;;
18576;SDS011;9418;52.694;13.294;2024-02-21T09:25:57;16.70;;;9.37;;
18576;SDS011;9418;52.694;13.294;2024-02-21T09:28:25;12.93;;;8.13;;
18576;SDS011;9418;52.694;13.294;2024-02-21T09:30:52;17.30;;;9.83;;
18576;SDS011;9418;52.694;13.294;2024-02-21T09:33:20;18.40;;;8.90;;
18576;SDS011;9418;52.694;13.294;2024-02-21T09:35:46;14.23;;;9.33;;
18576;SDS011;9418;52.694;13.294;2024-02-21T09:38:13;17.10;;;9.10;;
18576;SDS011;9418;52.694;13.294;2024-02-21T09:40:40;20.50;;;9.63;;
18576;SDS011;9418;52.694;13.294;2024-02-21T09:43:07;18.23;;;9.70;;
18576;SDS011;9418;52.694;13.294;2024-02-21T09:45:34;12.27;;;8.50;;
18576;SDS011;9418;52.694;13.294;2024-02-21T09:48:06;18.30;;;10.00;;
18576;SDS011;9418;52.694;13.294;2024-02-21T09:50:57;16.50;;;9.13;;
18576;SDS011;9418;52.694;13.294;2024-02-21T09:53:24;13.43;;;8.97;;
18576;SDS011;9418;52.694;13.294;2024-02-21T09:55:52;19.27;;;9.00;;
18576;SDS011;9418;52.694;13.294;2024-02-21T09:58:19;9.40;;;7.77;;
18576;SDS011;9418;52.694;13.294;2024-02-21T10:00:46;20.50;;;10.00;;
18576;SDS011;9418;52.694;13.294;2024-02-21T10:03:13;23.77;;;11.03;;
18576;SDS011;9418;52.694;13.294;2024-02-21T10:05:45;20.20;;;10.43;;
18576;SDS011;9418;52.694;13.294;2024-02-21T10:08:14;17.37;;;9.70;;
18576;SDS011;9418;52.694;13.294;2024-02-21T10:10:44;15.43;;;8.93;;
18576;SDS011;9418;52.694;13.294;2024-02-21T10:13:21;14.53;;;9.17;;
18576;SDS011;9418;52.694;13.294;2024-02-21T10:15:59;17.33;;;9.03;;
18576;SDS011;9418;52.694;13.294;2024-02-21T10:18:27;16.20;;;8.53;;
18576;SDS011;9418;52.694;13.294;2024-02-21T10:21:00;13.80;;;8.33;;
18576;SDS011;9418;52.694;13.294;2024-02-21T10:23:27;15.27;;;8.87;;
18576;SDS011;9418;52.694;13.294;2024-02-21T10:25:54;14.90;;;9.00;;
18576;SDS011;9418;52.694;13.294;2024-02-21T10:28:31;14.20;;;7.60;;
18576;SDS011;9418;52.694;13.294;2024-02-21T10:30:57;13.03;;;9.20;;
18576;SDS011;9418;52.694;13.294;2024-02-21T10:33:24;13.70;;;8.23;;
18576;SDS011;9418;52.694;13.294;2024-02-21T10:35:52;14.33;;;8.30;;
18576;SDS011;9418;52.694;13.294;2024-02-21T10:38:21;16.20;;;7.33;;
18576;SDS011;9418;52.694;13.294;2024-02-21T10:40:48;13.40;;;6.93;;
18576;SDS011;9418;52.694;13.294;2024-02-21T10:43:17;11.33;;;7.17;;
18576;SDS011;9418;52.694;13.294;2024-02-21T10:45:45;13.20;;;7.53;;
18576;SDS011;9418;52.694;13.294;2024-02-21T10:48:13;9.53;;;6.63;;
18576;SDS011;9418;52.694;13.294;2024-02-21T10:50:45;17.13;;;6.60;;
18576;SDS011;9418;52.694;13.294;2024-02-21T10:53:24;9.83;;;6.10;;
18576;SDS011;9418;52.694;13.294;2024-02-21T10:56:02;10.33;;;6.40;;
18576;SDS011;9418;52.694;13.294;2024-02-21T10:58:37;8.43;;;6.33;;
18576;SDS011;9418;52.694;13.294;2024-02-21T11:01:05;10.40;;;6.17;;
18576;SDS011;9418;52.694;13.294;2024-02-21T11:03:33;7.90;;;5.20;;
18576;SDS011;9418;52.694;13.294;2024-02-21T11:06:01;10.07;;;6.03;;
18576;SDS011;9418;52.694;13.294;2024-02-21T11:08:31;8.07;;;5.80;;
18576;SDS011;9418;52.694;13.294;2024-02-21T11:10:58;11.90;;;6.03;;
18576;SDS011;9418;52.694;13.294;2024-02-21T11:13:31;10.30;;;6.60;;
18576;SDS011;9418;52.694;13.294;2024-02-21T11:16:08;11.40;;;5.90;;
18576;SDS011;9418;52.694;13.294;2024-02-21T11:18:35;10.77;;;6.33;;
18576;SDS011;9418;52.694;13.294;2024-02-21T11:21:02;12.57;;;6.73;;
18576;SDS011;9418;52.694;13.294;2024-02-21T11:23:29;11.10;;;6.93;;
18576;SDS011;9418;52.694;13.294;2024-02-21T11:26:04;11.23;;;6.50;;
18576;SDS011;9418;52.694;13.294;2024-02-21T11:28:32;9.63;;;6.60;;
18576;SDS011;9418;52.694;13.294;2024-02-21T11:31:06;10.77;;;6.60;;
18576;SDS011;9418;52.694;13.294;2024-02-21T11:33:33;8.70;;;7.20;;
18576;SDS011;9418;52.694;13.294;2024-02-21T11:36:00;10.23;;;6.60;;
18576;SDS011;9418;52.694;13.294;2024-02-21T11:38:26;6.80;;;5.63;;
18576;SDS011;9418;52.694;13.294;2024-02-21T11:40:54;9.00;;;6.00;;
18576;SDS011;9418;52.694;13.294;2024-02-21T11:43:21;9.20;;;5.90;;
18576;SDS011;9418;52.694;13.294;2024-02-21T11:45:48;8.57;;;5.60;;
18576;SDS011;9418;52.694;13.294;2024-02-21T11:48:14;10.00;;;5.63;;
18576;SDS011;9418;52.694;13.294;2024-02-21T11:50:41;9.10;;;5.80;;
18576;SDS011;9418;52.694;13.294;2024-02-21T11:53:08;12.83;;;5.83;;
18576;SDS011;9418;52.694;13.294;2024-02-21T11:55:35;6.20;;;5.60;;
18576;SDS011;9418;52.694;13.294;2024-02-21T11:58:03;8.23;;;5.53;;
18576;SDS011;9418;52.694;13.294;2024-02-21T12:00:30;10.17;;;5.03;;
18576;SDS011;9418;52.694;13.294;2024-02-21T12:02:57;9.37;;;5.30;;
18576;SDS011;9418;52.694;13.294;2024-02-21T12:05:26;6.57;;;3.90;;
18576;SDS011;9418;52.694;13.294;2024-02-21T12:07:54;7.33;;;4.47;;
18576;SDS011;9418;52.694;13.294;2024-02-21T12:10:23;8.63;;;4.33;;
18576;SDS011;9418;52.694;13.294;2024-02-21T12:12:49;3.67;;;3.37;;
18576;SDS011;9418;52.694;13.294;2024-02-21T12:15:18;4.97;;;4.27;;
18576;SDS011;9418;52.694;13.294;2024-02-21T12:17:45;4.30;;;3.87;;
18576;SDS011;9418;52.694;13.294;2024-02-21T12:20:12;3.73;;;3.43;;
18576;SDS011;9418;52.694;13.294;2024-02-21T12:22:39;7.63;;;4.17;;
18576;SDS011;9418;52.694;13.294;2024-02-21T12:25:15;6.07;;;3.80;;
18576;SDS011;9418;52.694;13.294;2024-02-21T12:27:43;5.03;;;3.90;;
18576;SDS011;9418;52.694;13.294;2024-02-21T12:30:10;4.93;;;3.90;;
18576;SDS011;9418;52.694;13.294;2024-02-21T12:32:38;3.47;;;3.00;;
18576;SDS011;9418;52.694;13.294;2024-02-21T12:35:06;5.60;;;3.50;;
18576;SDS011;9418;52.694;13.294;2024-02-21T12:37:33;4.43;;;3.60;;
18576;SDS011;9418;52.694;13.294;2024-02-21T12:40:00;6.30;;;3.47;;
18576;SDS011;9418;52.694;13.294;2024-02-21T12:42:29;8.30;;;3.70;;
18576;SDS011;9418;52.694;13.294;2024-02-21T12:44:56;5.40;;;3.70;;
18576;SDS011;9418;52.694;13.294;2024-02-21T12:47:23;11.00;;;4.77;;
18576;SDS011;9418;52.694;13.294;2024-02-21T12:49:53;6.00;;;3.30;;
18576;SDS011;9418;52.694;13.294;2024-02-21T12:52:19;3.93;;;3.30;;
18576;SDS011;9418;52.694;13.294;2024-02-21T12:54:46;7.37;;;3.93;;
18576;SDS011;9418;52.694;13.294;2024-02-21T12:57:13;4.70;;;3.43;;
18576;SDS011;9418;52.694;13.294;2024-02-21T12:59:39;3.10;;;2.90;;
18576;SDS011;9418;52.694;13.294;2024-02-21T13:02:06;4.10;;;3.20;;
18576;SDS011;9418;52.694;13.294;2024-02-21T13:04:33;5.67;;;3.20;;
18576;SDS011;9418;52.694;13.294;2024-02-21T13:07:01;7.17;;;3.10;;
18576;SDS011;9418;52.694;13.294;2024-02-21T13:09:28;6.13;;;3.30;;
18576;SDS011;9418;52.694;13.294;2024-02-21T13:11:54;4.67;;;3.13;;
18576;SDS011;9418;52.694;13.294;2024-02-21T13:14:21;3.30;;;3.00;;
18576;SDS011;9418;52.694;13.294;2024-02-21T13:16:48;5.33;;;3.20;;
18576;SDS011;9418;52.694;13.294;2024-02-21T13:19:15;5.60;;;3.90;;
18576;SDS011;9418;52.694;13.294;2024-02-21T13:21:43;4.53;;;2.90;;
18576;SDS011;9418;52.694;13.294;2024-02-21T13:24:10;6.47;;;3.50;;
18576;SDS011;9418;52.694;13.294;2024-02-21T13:26:37;4.73;;;2.90;;
18576;SDS011;9418;52.694;13.294;2024-02-21T13:29:04;11.47;;;3.67;;
18576;SDS011;9418;52.694;13.294;2024-02-21T13:31:30;4.53;;;3.17;;
18576;SDS011;9418;52.694;13.294;2024-02-21T13:33:57;9.07;;;3.57;;
18576;SDS011;9418;52.694;13.294;2024-02-21T13:36:23;3.77;;;2.90;;
18576;SDS011;9418;52.694;13.294;2024-02-21T13:38:51;5.13;;;3.20;;
18576;SDS011;9418;52.694;13.294;2024-02-21T13:41:19;5.27;;;3.13;;
18576;SDS011;9418;52.694;13.294;2024-02-21T13:43:47;4.50;;;3.10;;
18576;SDS011;9418;52.694;13.294;2024-02-21T13:46:14;6.77;;;2.93;;
18576;SDS011;9418;52.694;13.294;2024-02-21T13:48:40;9.70;;;3.60;;
18576;SDS011;9418;52.694;13.294;2024-02-21T13:51:07;7.83;;;4.20;;
18576;SDS011;9418;52.694;13.294;2024-02-21T13:53:34;5.70;;;3.50;;
18576;SDS011;9418;52.694;13.294;2024-02-21T13:56:00;5.13;;;3.23;;
18576;SDS011;9418;52.694;13.294;2024-02-21T13:58:28;5.00;;;3.13;;
18576;SDS011;9418;52.694;13.294;2024-02-21T14:00:57;5.53;;;3.10;;
18576;SDS011;9418;52.694;13.294;2024-02-21T14:03:25;5.07;;;2.80;;
18576;SDS011;9418;52.694;13.294;2024-02-21T14:05:52;3.97;;;2.60;;
18576;SDS011;9418;52.694;13.294;2024-02-21T14:08:19;3.40;;;2.90;;
18576;SDS011;9418;52.694;13.294;2024-02-21T14:10:47;5.77;;;3.00;;
18576;SDS011;9418;52.694;13.294;2024-02-21T14:13:13;3.70;;;2.83;;
18576;SDS011;9418;52.694;13.294;2024-02-21T14:15:44;4.90;;;2.73;;
18576;SDS011;9418;52.694;13.294;2024-02-21T14:18:13;6.03;;;3.10;;
18576;SDS011;9418;52.694;13.294;2024-02-21T14:20:41;12.63;;;4.10;;
18576;SDS011;9418;52.694;13.294;2024-02-21T14:23:08;8.57;;;4.20;;
18576;SDS011;9418;52.694;13.294;2024-02-21T14:25:35;8.23;;;3.73;;
18576;SDS011;9418;52.694;13.294;2024-02-21T14:28:02;5.37;;;2.87;;
18576;SDS011;9418;52.694;13.294;2024-02-21T14:30:28;7.10;;;3.33;;
18576;SDS011;9418;52.694;13.294;2024-02-21T14:32:56;7.93;;;3.50;;
18576;SDS011;9418;52.694;13.294;2024-02-21T14:35:23;5.47;;;3.20;;
18576;SDS011;9418;52.694;13.294;2024-02-21T14:37:49;7.73;;;4.17;;